• Join FlightAware (Why Join?)
  • Login
  • US Flag 
05:03PM EST


 

Airport Tracker/Info


-or-


 

Live Flight TrackerFlight Track Log ✈ VRT51 ✈ 06-Oct-2013 ✈ KLQK - KBNA

Flight Track Log - Related Links

Times and Time Zones

All times are in EDT time to prevent confusion due to time zone crossing. See the VRT51 flight status page for this flight to view local times or setup timezone preferences in your user account.

Time Position Orientation Groundspeed Altitude Reporting Facility
EDT Latitude Longitude Course Direction KTS MPH feet Rate Location/Type
12:58PM 34.8583 -82.9933 289° West 256 295 6,000  Level Atlanta Center
12:59PM 34.8925 -83.0967 292° West 285 328 10,100 3,780 Climbing Atlanta Center
01:00PM 34.9164 -83.1978 286° West 305 351 13,600 3,420 Climbing Atlanta Center
01:01PM 34.9461 -83.3192 287° West 350 403 17,000 3,300 Climbing Atlanta Center
01:02PM 35.0413 -83.3658 241° Southwest  Level Estimated
01:02PM 34.9803 -83.4481 288° West 367 422 20,300  Level Atlanta Center
01:03PM 35.0206 -83.5772 291° West 388 447 23,100 2,580 Climbing Atlanta Center
01:04PM 35.0564 -83.7114 288° West 411 473 25,500 1,440 Climbing Atlanta Center
01:05PM 35.0964 -83.8533 289° West 428 493 26,000 240 Climbing Atlanta Center
01:06PM 35.1361 -84.0058 288° West 443 510 26,000  Level Atlanta Center
01:07PM 35.1694 -84.1581 285° West 457 526 26,000  Level Atlanta Center
01:08PM 35.2028 -84.3108 285° West 463 533 26,000  Level Atlanta Center
01:09PM 35.2378 -84.4583 286° West 463 533 26,000 -120 Level Atlanta Center
01:10PM 35.2706 -84.6111 285° West 463 533 25,800 -840 Descending Atlanta Center
01:11PM 35.3053 -84.7642 286° West 463 533 24,400 -900 Descending Atlanta Center
01:12PM 35.3375 -84.9119 285° West 457 526 24,000 -240 Descending Atlanta Center
01:13PM 35.3697 -85.0600 285° West 457 526 24,000  Level Atlanta Center
01:15PM 35.4214 -85.2997 285° West 458 527 24,000 -600 Level Memphis Center
01:16PM 35.4522 -85.4406 285° West 450 518 22,500 -1,500 Descending Memphis Center
01:17PM 35.4639 -85.5828 276° West 438 504 21,000 -1,620 Descending Memphis Center
01:18PM 35.4711 -85.7147 274° West 413 475 19,300 -2,160 Descending Memphis Center
01:19PM 35.5336 -85.8236 305° West 380 437 16,800 -2,520 Descending Memphis Center
01:20PM 35.6081 -85.9267 312° West 391 450 14,300 -2,580 Descending Memphis Center
01:21PM 35.6828 -86.0353 310° West 412 474 11,700 -1,680 Descending Memphis Center
01:22PM 35.7586 -86.1156 319° Northwest 380 437 11,000 -840 Descending Memphis Center
01:23PM 35.8314 -86.1708 328° Northwest 361 415 10,100 -1,500 Descending Memphis Center
01:24PM 35.8800 -86.2528 306° West 310 357 8,100 -1,560 Descending Memphis Center
01:25PM 35.9342 -86.3167 316° Northwest 288 331 7,000 -1,020 Descending Memphis Center
01:26PM 36.0006 -86.3647 330° Northwest 275 316 6,100 -960 Descending Memphis Center
01:27PM 36.0644 -86.4131 329° Northwest 270 311 5,100 -1,020 Descending Memphis Center
01:28PM 36.1328 -86.4636 329° Northwest 277 319 4,100 -1,020 Descending Memphis Center
01:29PM 36.1992 -86.5169 327° Northwest 282 325 3,100 -720 Descending Memphis Center
01:30PM 36.2489 -86.5714 319° Northwest 258 297 2,700 -540 Descending Memphis Center
01:31PM 36.2214 -86.6267 238° Southwest 154 177 2,100 -480 Descending Memphis Center
01:32PM 36.1864 -86.6411 198° South 128 147 1,800 -540 Descending Memphis Center
01:33PM 36.1511 -86.6531 195° South 128 147 1,100 -720 Descending Memphis Center
01:35PM 36.1167 -86.6667 141° Southeast  Level FlightAware Approximate
01:42PM 36.1245 -86.6782 141° Southeast  Level Estimated
01:43PM 36.1245 -86.6782 141° Southeast  Level Estimated
01:44PM 36.1245 -86.6782 141° Southeast  Level Estimated
01:45PM 36.1245 -86.6782 141° Southeast  Level Estimated
01:46PM 36.1245 -86.6782 141° Southeast  Level Estimated
01:47PM 36.1245 -86.6782 141° Southeast  Level Estimated
01:48PM 36.1245 -86.6782 141° Southeast  Level Estimated